CheckWX is a tool to help pilots better visualize weather data.  It is not intended as a substitute for an official pre-flight weather briefing.

01:25:16 UTC

KMAE METAR
Madera Municipal Airport
Madera, California, USA
Current

32 mins ago

KMAE 240053Z AUTO 32008KT 10SM CLR 18/07 A3016 RMK AO2 SLP213 T01780072
Observed
Mar-24 @ 00:53 UTC
Wind
  • 320° at 8 KTS
Visibility
10 SM
Flight Rules
VFR
Cloud Levels
  • Clear skies
Temperature
18°C / 64°F
Dewpoint
C / 45°F
Humidity
49%
Altimeter
30.16" Hg
Pressure
1021.3 hPa
Previous

2 hours ago

KMAE 232353Z AUTO 30007KT 10SM CLR 19/07 A3016 RMK AO2 SLP213 60001 T01890072 10194 20139 56010
Observed
Mar-23 @ 23:53 UTC
Wind
  • 300° at 7 KTS
Visibility
10 SM
Flight Rules
VFR
Cloud Levels
  • Clear skies
Temperature
19°C / 66°F
Dewpoint
C / 45°F
Humidity
46%
Altimeter
30.16" Hg
Pressure
1021.3 hPa
Previous

3 hours ago

KMAE 232253Z AUTO VRB06KT 10SM CLR 19/08 A3017 RMK AO2 SLP216 T01890078
Observed
Mar-23 @ 22:53 UTC
Wind
  • Variable at 6 KTS
Visibility
10 SM
Flight Rules
VFR
Cloud Levels
  • Clear skies
Temperature
19°C / 66°F
Dewpoint
C / 46°F
Humidity
49%
Altimeter
30.17" Hg
Pressure
1021.6 hPa